BIENTÔT MET'MAP
version 2.0 !

Prévue avant fin octobre,
la nouvelle version sera
plus belle, plus complète
et hébergée sur un serveur
3 fois plus puissant...
et toujours gratuite !


Pas compatible ?
Essayez la version Mobile !

SE CONNECTER : | S'inscrire | Disclaimer | Découvrir Orbifly |
Code OACI :

TAF - LIRN Naples Capodichino - 05 Jul 2020 05:30 UTC
Data Sources :     NOAA   


- Altitude de l'aérodrome : 294 ft
- Code IATA : NAP
- Pas de NOTAMs connus.


LIRN - Naples Capodichino

Dernier METAR connu : 2015/08/11 07:50 LIRN 110750Z 06009KT 030V100 9999 -RA SCT030CB SCT035 BKN070 23/18 Q1011 RETSRA
TAF TAF LIRN
Valide du 05 à 00h jusqu'au 06 à 00h UTC


042300Z 0500/0524 02008KT 9999 SCT030
BECMG 0509/0511 26010KT
BECMG 0518/0520 05006KT

Source NOAA


MET'MAP, la Météo Aéronautique d'un coup d'oeil ! - Copyright ORBIFLY Décembre 2007

Développement & Programmation : Alexandra Zaïnal
Co-Développement : Marc-Olivier Méhu
Soutien technique & logistique : Manuel Goepfert
Conception & Financement : Baudouin d'Aumeries